sensor_id;sensor_type;location;lat;lon;timestamp;P1;P2;P0
73546;PMS7003;61807;48.384;-4.386;2023-02-01T06:10:40;4.00;1.00;0.00
73546;PMS7003;61807;48.384;-4.386;2023-02-01T06:13:05;5.25;2.25;1.25
73546;PMS7003;61807;48.384;-4.386;2023-02-01T06:15:31;4.25;2.00;2.00
73546;PMS7003;61807;48.384;-4.386;2023-02-01T06:17:57;10.25;4.00;1.25
73546;PMS7003;61807;48.384;-4.386;2023-02-01T06:20:22;2.75;2.25;1.75
73546;PMS7003;61807;48.384;-4.386;2023-02-01T06:22:48;4.00;1.75;1.00
73546;PMS7003;61807;48.384;-4.386;2023-02-01T06:25:13;5.25;3.00;1.00
73546;PMS7003;61807;48.384;-4.386;2023-02-01T06:27:39;4.50;2.25;1.00
73546;PMS7003;61807;48.384;-4.386;2023-02-01T06:30:05;3.50;3.25;1.00
73546;PMS7003;61807;48.384;-4.386;2023-02-01T06:32:32;6.50;2.00;1.25
73546;PMS7003;61807;48.384;-4.386;2023-02-01T06:34:57;5.50;1.50;1.00
73546;PMS7003;61807;48.384;-4.386;2023-02-01T06:37:23;8.50;2.75;1.00
73546;PMS7003;61807;48.384;-4.386;2023-02-01T06:39:50;4.00;3.00;2.00
73546;PMS7003;61807;48.384;-4.386;2023-02-01T06:42:16;3.00;2.00;1.50
73546;PMS7003;61807;48.384;-4.386;2023-02-01T06:44:41;4.75;2.25;2.00
73546;PMS7003;61807;48.384;-4.386;2023-02-01T06:47:07;3.75;2.00;1.25
73546;PMS7003;61807;48.384;-4.386;2023-02-01T06:49:32;7.75;2.75;1.75
73546;PMS7003;61807;48.384;-4.386;2023-02-01T06:51:58;5.75;2.25;2.00
73546;PMS7003;61807;48.384;-4.386;2023-02-01T06:54:25;9.50;3.50;2.00
73546;PMS7003;61807;48.384;-4.386;2023-02-01T06:56:51;5.75;3.50;2.00
73546;PMS7003;61807;48.384;-4.386;2023-02-01T06:59:16;4.25;2.00;1.00
73546;PMS7003;61807;48.384;-4.386;2023-02-01T07:01:42;4.00;3.00;2.00
73546;PMS7003;61807;48.384;-4.386;2023-02-01T07:04:09;9.00;4.75;2.75
73546;PMS7003;61807;48.384;-4.386;2023-02-01T07:06:36;7.50;2.50;1.00
73546;PMS7003;61807;48.384;-4.386;2023-02-01T07:09:01;9.25;5.00;3.00
73546;PMS7003;61807;48.384;-4.386;2023-02-01T07:11:27;6.50;3.25;2.00
73546;PMS7003;61807;48.384;-4.386;2023-02-01T07:13:53;4.00;1.00;1.00
73546;PMS7003;61807;48.384;-4.386;2023-02-01T07:16:19;8.00;3.00;2.00
73546;PMS7003;61807;48.384;-4.386;2023-02-01T07:18:45;5.00;1.00;1.00
73546;PMS7003;61807;48.384;-4.386;2023-02-01T07:21:11;7.75;3.00;2.00
73546;PMS7003;61807;48.384;-4.386;2023-02-01T07:23:37;5.25;2.25;1.50
73546;PMS7003;61807;48.384;-4.386;2023-02-01T07:26:04;4.00;2.50;1.75
73546;PMS7003;61807;48.384;-4.386;2023-02-01T07:28:33;9.25;3.00;2.00
73546;PMS7003;61807;48.384;-4.386;2023-02-01T07:31:06;8.25;3.25;2.00
73546;PMS7003;61807;48.384;-4.386;2023-02-01T07:33:36;4.75;2.50;1.75
73546;PMS7003;61807;48.384;-4.386;2023-02-01T07:36:03;4.25;3.00;2.25
73546;PMS7003;61807;48.384;-4.386;2023-02-01T07:38:30;2.25;2.25;2.25
73546;PMS7003;61807;48.384;-4.386;2023-02-01T07:40:59;6.00;2.50;2.00
73546;PMS7003;61807;48.384;-4.386;2023-02-01T07:43:26;2.25;2.00;1.50
73546;PMS7003;61807;48.384;-4.386;2023-02-01T07:45:52;4.00;1.75;1.00
73546;PMS7003;61807;48.384;-4.386;2023-02-01T07:48:18;8.00;2.50;1.00
73546;PMS7003;61807;48.384;-4.386;2023-02-01T07:50:43;7.75;3.50;2.00
73546;PMS7003;61807;48.384;-4.386;2023-02-01T07:53:09;7.00;4.00;2.00
73546;PMS7003;61807;48.384;-4.386;2023-02-01T07:55:37;10.75;2.25;2.00
73546;PMS7003;61807;48.384;-4.386;2023-02-01T07:58:03;7.00;4.00;2.25
73546;PMS7003;61807;48.384;-4.386;2023-02-01T08:00:28;8.50;6.50;4.50
73546;PMS7003;61807;48.384;-4.386;2023-02-01T08:03:12;17.25;7.00;4.00
73546;PMS7003;61807;48.384;-4.386;2023-02-01T08:05:38;7.25;5.00;3.25
73546;PMS7003;61807;48.384;-4.386;2023-02-01T08:08:04;16.25;5.00;3.75
73546;PMS7003;61807;48.384;-4.386;2023-02-01T08:10:30;5.00;5.00;3.00
73546;PMS7003;61807;48.384;-4.386;2023-02-01T08:12:57;6.75;4.00;3.00
73546;PMS7003;61807;48.384;-4.386;2023-02-01T08:15:24;10.75;4.00;3.00
73546;PMS7003;61807;48.384;-4.386;2023-02-01T08:17:50;7.50;4.00;3.00
73546;PMS7003;61807;48.384;-4.386;2023-02-01T08:20:17;11.25;5.00;3.75
73546;PMS7003;61807;48.384;-4.386;2023-02-01T08:22:43;8.50;6.25;4.50
73546;PMS7003;61807;48.384;-4.386;2023-02-01T08:25:09;8.50;5.00;3.00
73546;PMS7003;61807;48.384;-4.386;2023-02-01T08:27:35;7.50;3.50;3.00
73546;PMS7003;61807;48.384;-4.386;2023-02-01T08:30:01;9.00;5.00;3.75
73546;PMS7003;61807;48.384;-4.386;2023-02-01T08:32:27;9.50;5.00;3.00
73546;PMS7003;61807;48.384;-4.386;2023-02-01T08:34:53;11.50;7.00;3.00
73546;PMS7003;61807;48.384;-4.386;2023-02-01T08:37:18;8.25;4.25;4.00
73546;PMS7003;61807;48.384;-4.386;2023-02-01T08:39:44;9.75;6.50;4.00
73546;PMS7003;61807;48.384;-4.386;2023-02-01T08:42:10;8.50;5.25;4.00
73546;PMS7003;61807;48.384;-4.386;2023-02-01T08:44:54;13.25;7.50;4.25
73546;PMS7003;61807;48.384;-4.386;2023-02-01T08:47:20;7.75;4.00;3.25
73546;PMS7003;61807;48.384;-4.386;2023-02-01T08:49:45;9.00;5.75;3.00
73546;PMS7003;61807;48.384;-4.386;2023-02-01T08:52:11;6.00;3.00;2.00
73546;PMS7003;61807;48.384;-4.386;2023-02-01T08:54:36;5.50;4.50;3.00
73546;PMS7003;61807;48.384;-4.386;2023-02-01T08:57:02;8.25;4.00;3.00
73546;PMS7003;61807;48.384;-4.386;2023-02-01T08:59:28;7.75;5.00;3.00
73546;PMS7003;61807;48.384;-4.386;2023-02-01T09:01:54;10.25;4.00;2.00
73546;PMS7003;61807;48.384;-4.386;2023-02-01T09:04:20;7.50;4.00;3.00
73546;PMS7003;61807;48.384;-4.386;2023-02-01T09:06:45;6.50;3.00;2.50
73546;PMS7003;61807;48.384;-4.386;2023-02-01T09:09:11;7.50;4.00;3.00
73546;PMS7003;61807;48.384;-4.386;2023-02-01T09:11:36;5.25;3.75;2.00
73546;PMS7003;61807;48.384;-4.386;2023-02-01T09:14:02;3.75;3.25;2.00
73546;PMS7003;61807;48.384;-4.386;2023-02-01T09:16:27;4.00;4.00;3.00
73546;PMS7003;61807;48.384;-4.386;2023-02-01T09:18:52;5.75;3.00;2.00
73546;PMS7003;61807;48.384;-4.386;2023-02-01T09:21:18;6.00;5.00;3.00
73546;PMS7003;61807;48.384;-4.386;2023-02-01T09:23:43;8.00;4.00;2.25
73546;PMS7003;61807;48.384;-4.386;2023-02-01T09:26:09;6.50;3.50;2.00
73546;PMS7003;61807;48.384;-4.386;2023-02-01T09:28:36;9.50;3.50;3.00
73546;PMS7003;61807;48.384;-4.386;2023-02-01T09:31:01;4.00;2.00;2.00
73546;PMS7003;61807;48.384;-4.386;2023-02-01T09:33:27;4.75;4.25;2.00
73546;PMS7003;61807;48.384;-4.386;2023-02-01T09:35:57;5.00;3.75;2.25
73546;PMS7003;61807;48.384;-4.386;2023-02-01T09:38:24;4.50;3.00;2.25
73546;PMS7003;61807;48.384;-4.386;2023-02-01T09:40:50;5.00;3.75;3.00
73546;PMS7003;61807;48.384;-4.386;2023-02-01T09:48:56;5.00;3.00;1.00
73546;PMS7003;61807;48.384;-4.386;2023-02-01T09:51:25;7.00;2.75;2.00
73546;PMS7003;61807;48.384;-4.386;2023-02-01T09:54:06;4.00;3.00;2.50
73546;PMS7003;61807;48.384;-4.386;2023-02-01T09:56:44;5.25;2.50;2.00
73546;PMS7003;61807;48.384;-4.386;2023-02-01T10:01:39;6.50;4.00;2.00
73546;PMS7003;61807;48.384;-4.386;2023-02-01T10:04:06;3.50;2.00;2.00
73546;PMS7003;61807;48.384;-4.386;2023-02-01T10:09:35;6.25;3.25;2.25
73546;PMS7003;61807;48.384;-4.386;2023-02-01T10:20:44;6.00;3.50;3.00
73546;PMS7003;61807;48.384;-4.386;2023-02-01T10:23:38;11.00;5.50;3.00
73546;PMS7003;61807;48.384;-4.386;2023-02-01T10:26:26;7.25;3.50;2.00
73546;PMS7003;61807;48.384;-4.386;2023-02-01T10:29:02;7.75;2.50;2.25
73546;PMS7003;61807;48.384;-4.386;2023-02-01T10:31:30;8.25;4.00;3.25
73546;PMS7003;61807;48.384;-4.386;2023-02-01T10:34:00;5.25;4.00;3.00
73546;PMS7003;61807;48.384;-4.386;2023-02-01T10:36:34;4.00;3.00;2.00
73546;PMS7003;61807;48.384;-4.386;2023-02-01T10:39:02;6.75;4.25;3.00
73546;PMS7003;61807;48.384;-4.386;2023-02-01T10:41:38;5.25;3.50;2.25
73546;PMS7003;61807;48.384;-4.386;2023-02-01T10:44:09;4.25;4.25;2.00
73546;PMS7003;61807;48.384;-4.386;2023-02-01T10:46:38;3.25;2.25;2.00
73546;PMS7003;61807;48.384;-4.386;2023-02-01T10:49:04;4.00;4.00;2.00
73546;PMS7003;61807;48.384;-4.386;2023-02-01T10:51:39;6.25;3.00;2.00
73546;PMS7003;61807;48.384;-4.386;2023-02-01T10:56:47;6.25;1.75;1.00
73546;PMS7003;61807;48.384;-4.386;2023-02-01T10:59:18;4.75;2.00;1.75
73546;PMS7003;61807;48.384;-4.386;2023-02-01T11:01:49;5.00;1.00;1.00
73546;PMS7003;61807;48.384;-4.386;2023-02-01T11:04:15;3.50;2.00;2.00
73546;PMS7003;61807;48.384;-4.386;2023-02-01T11:06:44;7.75;3.00;2.00
73546;PMS7003;61807;48.384;-4.386;2023-02-01T11:09:22;6.00;3.00;2.00
73546;PMS7003;61807;48.384;-4.386;2023-02-01T11:14:15;1.75;1.75;1.00
73546;PMS7003;61807;48.384;-4.386;2023-02-01T11:17:00;5.00;2.25;1.00
73546;PMS7003;61807;48.384;-4.386;2023-02-01T11:19:27;2.00;2.00;1.50
73546;PMS7003;61807;48.384;-4.386;2023-02-01T11:21:54;2.50;1.00;1.00
73546;PMS7003;61807;48.384;-4.386;2023-02-01T11:24:24;4.75;2.00;1.00
73546;PMS7003;61807;48.384;-4.386;2023-02-01T11:26:56;8.50;2.25;1.75
73546;PMS7003;61807;48.384;-4.386;2023-02-01T11:29:24;4.50;2.00;1.00
73546;PMS7003;61807;48.384;-4.386;2023-02-01T11:31:57;6.00;2.00;1.00
73546;PMS7003;61807;48.384;-4.386;2023-02-01T11:34:25;3.00;2.00;1.25
73546;PMS7003;61807;48.384;-4.386;2023-02-01T11:36:58;6.75;3.50;2.00
73546;PMS7003;61807;48.384;-4.386;2023-02-01T11:39:29;1.50;1.25;1.00
73546;PMS7003;61807;48.384;-4.386;2023-02-01T11:44:38;5.75;3.00;2.00
73546;PMS7003;61807;48.384;-4.386;2023-02-01T11:47:47;4.00;3.00;2.00
73546;PMS7003;61807;48.384;-4.386;2023-02-01T11:49:57;7.00;2.25;2.00
73546;PMS7003;61807;48.384;-4.386;2023-02-01T11:55:36;3.00;3.00;2.00
73546;PMS7003;61807;48.384;-4.386;2023-02-01T12:03:55;4.00;2.00;1.00
73546;PMS7003;61807;48.384;-4.386;2023-02-01T12:07:09;4.50;2.00;1.00
73546;PMS7003;61807;48.384;-4.386;2023-02-01T12:15:05;1.75;1.75;1.00
73546;PMS7003;61807;48.384;-4.386;2023-02-01T12:28:31;5.75;1.50;0.50
73546;PMS7003;61807;48.384;-4.386;2023-02-01T12:36:52;1.25;0.75;0.50
73546;PMS7003;61807;48.384;-4.386;2023-02-01T12:42:07;1.50;0.00;0.00
73546;PMS7003;61807;48.384;-4.386;2023-02-01T12:44:46;1.25;1.25;0.75
73546;PMS7003;61807;48.384;-4.386;2023-02-01T12:47:29;4.25;1.00;0.75
73546;PMS7003;61807;48.384;-4.386;2023-02-01T12:52:48;3.75;1.25;1.00
73546;PMS7003;61807;48.384;-4.386;2023-02-01T12:58:04;3.00;2.00;1.75
73546;PMS7003;61807;48.384;-4.386;2023-02-01T13:00:44;8.75;2.75;1.00
73546;PMS7003;61807;48.384;-4.386;2023-02-01T13:06:26;3.50;2.50;2.00
73546;PMS7003;61807;48.384;-4.386;2023-02-01T13:08:59;6.00;2.75;2.00
73546;PMS7003;61807;48.384;-4.386;2023-02-01T13:11:39;3.25;2.00;1.50
73546;PMS7003;61807;48.384;-4.386;2023-02-01T13:17:22;3.00;2.00;1.25
73546;PMS7003;61807;48.384;-4.386;2023-02-01T13:22:43;1.50;1.00;1.00
73546;PMS7003;61807;48.384;-4.386;2023-02-01T13:25:13;1.75;1.50;0.75
73546;PMS7003;61807;48.384;-4.386;2023-02-01T13:27:43;2.25;1.75;1.00
73546;PMS7003;61807;48.384;-4.386;2023-02-01T13:33:46;5.25;2.00;1.25
73546;PMS7003;61807;48.384;-4.386;2023-02-01T13:36:38;5.00;1.00;0.75
73546;PMS7003;61807;48.384;-4.386;2023-02-01T13:45:42;3.00;1.25;1.00
73546;PMS7003;61807;48.384;-4.386;2023-02-01T13:47:57;2.75;2.00;1.00
73546;PMS7003;61807;48.384;-4.386;2023-02-01T13:50:37;2.75;1.00;1.00
73546;PMS7003;61807;48.384;-4.386;2023-02-01T13:55:41;7.25;2.00;1.00
73546;PMS7003;61807;48.384;-4.386;2023-02-01T13:58:14;1.50;1.00;1.00
73546;PMS7003;61807;48.384;-4.386;2023-02-01T14:00:43;2.50;1.00;1.00
73546;PMS7003;61807;48.384;-4.386;2023-02-01T14:03:10;2.00;1.00;1.00
73546;PMS7003;61807;48.384;-4.386;2023-02-01T14:10:47;3.75;2.00;1.00
73546;PMS7003;61807;48.384;-4.386;2023-02-01T14:13:23;1.75;1.00;1.00
73546;PMS7003;61807;48.384;-4.386;2023-02-01T14:21:19;4.50;2.00;1.00
73546;PMS7003;61807;48.384;-4.386;2023-02-01T14:26:40;3.75;1.00;1.00
73546;PMS7003;61807;48.384;-4.386;2023-02-01T14:58:56;6.00;1.50;1.00
73546;PMS7003;61807;48.384;-4.386;2023-02-01T15:03:47;3.75;1.75;1.00
73546;PMS7003;61807;48.384;-4.386;2023-02-01T15:09:02;3.75;2.00;1.00
73546;PMS7003;61807;48.384;-4.386;2023-02-01T15:11:52;7.50;1.75;1.00
73546;PMS7003;61807;48.384;-4.386;2023-02-01T15:14:32;3.00;1.25;1.00
73546;PMS7003;61807;48.384;-4.386;2023-02-01T15:17:03;5.00;3.00;1.00
73546;PMS7003;61807;48.384;-4.386;2023-02-01T15:19:59;2.50;0.75;0.75
73546;PMS7003;61807;48.384;-4.386;2023-02-01T15:22:27;3.50;2.00;1.50
73546;PMS7003;61807;48.384;-4.386;2023-02-01T15:24:55;5.50;1.75;1.00
73546;PMS7003;61807;48.384;-4.386;2023-02-01T15:27:22;2.00;1.00;1.00
73546;PMS7003;61807;48.384;-4.386;2023-02-01T15:29:48;3.50;2.00;1.50
73546;PMS7003;61807;48.384;-4.386;2023-02-01T15:32:33;4.00;1.50;1.00
73546;PMS7003;61807;48.384;-4.386;2023-02-01T15:35:00;3.75;1.00;1.00
73546;PMS7003;61807;48.384;-4.386;2023-02-01T15:37:27;3.00;2.00;1.00
73546;PMS7003;61807;48.384;-4.386;2023-02-01T15:42:40;5.00;2.00;2.00
73546;PMS7003;61807;48.384;-4.386;2023-02-01T15:45:31;1.25;1.00;1.00
73546;PMS7003;61807;48.384;-4.386;2023-02-01T15:47:58;6.00;2.00;1.00
73546;PMS7003;61807;48.384;-4.386;2023-02-01T15:50:24;2.75;1.75;1.00
73546;PMS7003;61807;48.384;-4.386;2023-02-01T15:52:51;3.75;2.00;1.00
73546;PMS7003;61807;48.384;-4.386;2023-02-01T15:55:34;8.00;2.25;1.25
73546;PMS7003;61807;48.384;-4.386;2023-02-01T15:58:07;3.75;1.50;1.00
73546;PMS7003;61807;48.384;-4.386;2023-02-01T16:00:47;9.00;2.00;1.00
73546;PMS7003;61807;48.384;-4.386;2023-02-01T16:06:09;3.00;2.50;1.00
73546;PMS7003;61807;48.384;-4.386;2023-02-01T16:08:36;6.25;3.00;1.25
73546;PMS7003;61807;48.384;-4.386;2023-02-01T16:13:33;5.00;1.75;1.00
73546;PMS7003;61807;48.384;-4.386;2023-02-01T16:15:58;1.75;1.00;0.75
73546;PMS7003;61807;48.384;-4.386;2023-02-01T16:18:24;9.25;1.00;0.75
73546;PMS7003;61807;48.384;-4.386;2023-02-01T16:20:49;2.75;2.75;1.50
73546;PMS7003;61807;48.384;-4.386;2023-02-01T16:23:15;7.00;1.00;1.00
73546;PMS7003;61807;48.384;-4.386;2023-02-01T16:25:40;6.75;1.50;1.00
73546;PMS7003;61807;48.384;-4.386;2023-02-01T16:28:06;5.75;2.00;1.00
73546;PMS7003;61807;48.384;-4.386;2023-02-01T16:30:31;5.50;3.75;2.00
73546;PMS7003;61807;48.384;-4.386;2023-02-01T16:32:58;5.25;2.25;1.50
73546;PMS7003;61807;48.384;-4.386;2023-02-01T16:35:28;3.75;2.00;1.50
73546;PMS7003;61807;48.384;-4.386;2023-02-01T16:38:04;2.00;2.00;2.00
73546;PMS7003;61807;48.384;-4.386;2023-02-01T16:40:37;5.00;1.50;1.25
73546;PMS7003;61807;48.384;-4.386;2023-02-01T16:43:07;4.50;2.00;2.00
73546;PMS7003;61807;48.384;-4.386;2023-02-01T16:45:37;2.75;1.00;1.00
73546;PMS7003;61807;48.384;-4.386;2023-02-01T16:48:05;2.75;1.00;1.00
73546;PMS7003;61807;48.384;-4.386;2023-02-01T16:50:31;3.50;2.25;1.00
73546;PMS7003;61807;48.384;-4.386;2023-02-01T16:52:58;2.50;2.00;1.00
73546;PMS7003;61807;48.384;-4.386;2023-02-01T16:55:23;6.00;2.25;1.00
73546;PMS7003;61807;48.384;-4.386;2023-02-01T16:57:50;4.25;2.00;2.00
73546;PMS7003;61807;48.384;-4.386;2023-02-01T17:00:15;4.50;2.50;2.00
73546;PMS7003;61807;48.384;-4.386;2023-02-01T17:02:41;9.75;3.00;2.00
73546;PMS7003;61807;48.384;-4.386;2023-02-01T17:05:07;6.00;2.00;1.50
73546;PMS7003;61807;48.384;-4.386;2023-02-01T17:07:33;0.25;0.25;0.00
73546;PMS7003;61807;48.384;-4.386;2023-02-01T17:09:59;5.00;3.25;2.00
73546;PMS7003;61807;48.384;-4.386;2023-02-01T17:12:26;1.00;1.00;1.00
73546;PMS7003;61807;48.384;-4.386;2023-02-01T17:14:57;2.00;1.50;1.00
73546;PMS7003;61807;48.384;-4.386;2023-02-01T17:17:23;7.75;7.75;6.00
73546;PMS7003;61807;48.384;-4.386;2023-02-01T17:19:54;12.00;6.25;5.00
73546;PMS7003;61807;48.384;-4.386;2023-02-01T17:22:20;13.50;11.50;10.25
73546;PMS7003;61807;48.384;-4.386;2023-02-01T17:24:46;10.25;3.00;2.25
73546;PMS7003;61807;48.384;-4.386;2023-02-01T17:27:11;4.75;2.75;2.00
73546;PMS7003;61807;48.384;-4.386;2023-02-01T17:29:37;4.00;2.25;1.25
73546;PMS7003;61807;48.384;-4.386;2023-02-01T17:32:02;4.00;3.00;2.50
73546;PMS7003;61807;48.384;-4.386;2023-02-01T17:34:29;6.50;2.75;2.75
73546;PMS7003;61807;48.384;-4.386;2023-02-01T17:36:55;4.00;2.75;2.00
73546;PMS7003;61807;48.384;-4.386;2023-02-01T17:39:20;7.00;2.25;2.00
73546;PMS7003;61807;48.384;-4.386;2023-02-01T17:42:05;5.00;3.25;2.50
73546;PMS7003;61807;48.384;-4.386;2023-02-01T17:44:34;7.25;2.25;2.00
73546;PMS7003;61807;48.384;-4.386;2023-02-01T17:46:59;5.50;3.00;2.00
73546;PMS7003;61807;48.384;-4.386;2023-02-01T17:49:25;3.75;3.75;2.00
73546;PMS7003;61807;48.384;-4.386;2023-02-01T17:51:52;5.00;3.50;3.00
73546;PMS7003;61807;48.384;-4.386;2023-02-01T17:54:18;2.00;2.00;2.00
73546;PMS7003;61807;48.384;-4.386;2023-02-01T17:56:44;6.75;3.00;2.00
73546;PMS7003;61807;48.384;-4.386;2023-02-01T17:59:10;6.50;5.00;3.00
73546;PMS7003;61807;48.384;-4.386;2023-02-01T18:01:35;4.00;4.00;3.00
73546;PMS7003;61807;48.384;-4.386;2023-02-01T18:04:02;9.00;4.00;3.25
73546;PMS7003;61807;48.384;-4.386;2023-02-01T18:06:27;5.50;4.25;3.00
73546;PMS7003;61807;48.384;-4.386;2023-02-01T18:08:58;6.25;3.25;3.00
73546;PMS7003;61807;48.384;-4.386;2023-02-01T18:11:23;5.50;4.00;3.25
73546;PMS7003;61807;48.384;-4.386;2023-02-01T18:13:50;5.75;5.50;4.00
73546;PMS7003;61807;48.384;-4.386;2023-02-01T18:18:52;6.75;4.75;2.00
73546;PMS7003;61807;48.384;-4.386;2023-02-01T18:21:18;6.25;6.00;3.00
73546;PMS7003;61807;48.384;-4.386;2023-02-01T18:23:45;6.75;4.00;3.00
73546;PMS7003;61807;48.384;-4.386;2023-02-01T18:26:12;8.00;6.00;4.00
73546;PMS7003;61807;48.384;-4.386;2023-02-01T18:28:39;13.25;6.25;4.00
73546;PMS7003;61807;48.384;-4.386;2023-02-01T18:31:06;8.00;5.50;4.00
73546;PMS7003;61807;48.384;-4.386;2023-02-01T18:33:40;11.50;9.00;5.00
73546;PMS7003;61807;48.384;-4.386;2023-02-01T18:36:07;14.00;8.75;6.25
73546;PMS7003;61807;48.384;-4.386;2023-02-01T18:38:36;13.75;9.00;7.00
73546;PMS7003;61807;48.384;-4.386;2023-02-01T18:41:02;11.75;10.00;7.00
73546;PMS7003;61807;48.384;-4.386;2023-02-01T18:43:29;7.00;4.00;4.00
73546;PMS7003;61807;48.384;-4.386;2023-02-01T18:45:54;13.25;8.25;6.00
73546;PMS7003;61807;48.384;-4.386;2023-02-01T18:48:20;11.75;8.75;6.00
73546;PMS7003;61807;48.384;-4.386;2023-02-01T18:50:46;8.75;6.50;5.25
73546;PMS7003;61807;48.384;-4.386;2023-02-01T18:55:44;9.75;5.75;4.00
73546;PMS7003;61807;48.384;-4.386;2023-02-01T18:58:11;5.75;4.00;3.75
73546;PMS7003;61807;48.384;-4.386;2023-02-01T19:00:40;8.50;6.00;3.75
73546;PMS7003;61807;48.384;-4.386;2023-02-01T19:03:05;7.75;5.50;3.25
73546;PMS7003;61807;48.384;-4.386;2023-02-01T19:05:31;7.00;4.00;3.00
73546;PMS7003;61807;48.384;-4.386;2023-02-01T19:07:56;9.75;7.00;3.00
73546;PMS7003;61807;48.384;-4.386;2023-02-01T19:10:22;11.00;6.25;4.00
73546;PMS7003;61807;48.384;-4.386;2023-02-01T19:12:51;10.75;6.50;4.00
73546;PMS7003;61807;48.384;-4.386;2023-02-01T19:15:19;6.50;4.75;3.25
73546;PMS7003;61807;48.384;-4.386;2023-02-01T19:17:46;7.75;6.50;5.00
73546;PMS7003;61807;48.384;-4.386;2023-02-01T19:20:13;9.00;4.50;3.00
73546;PMS7003;61807;48.384;-4.386;2023-02-01T19:22:41;6.00;4.00;3.50
73546;PMS7003;61807;48.384;-4.386;2023-02-01T19:25:08;10.00;5.00;4.00
73546;PMS7003;61807;48.384;-4.386;2023-02-01T19:27:37;8.00;6.75;5.00
73546;PMS7003;61807;48.384;-4.386;2023-02-01T19:30:03;11.75;5.25;3.75
73546;PMS7003;61807;48.384;-4.386;2023-02-01T19:32:28;9.50;7.75;5.00
73546;PMS7003;61807;48.384;-4.386;2023-02-01T19:34:54;8.00;6.25;4.00
73546;PMS7003;61807;48.384;-4.386;2023-02-01T19:37:19;6.50;5.75;4.75
73546;PMS7003;61807;48.384;-4.386;2023-02-01T19:39:45;10.00;6.75;3.25
73546;PMS7003;61807;48.384;-4.386;2023-02-01T19:42:10;7.50;5.75;4.50
73546;PMS7003;61807;48.384;-4.386;2023-02-01T19:44:36;12.75;7.25;5.00
73546;PMS7003;61807;48.384;-4.386;2023-02-01T19:47:02;10.00;7.75;6.00
73546;PMS7003;61807;48.384;-4.386;2023-02-01T19:49:27;10.00;8.00;6.00
73546;PMS7003;61807;48.384;-4.386;2023-02-01T19:51:53;11.25;10.00;7.00
73546;PMS7003;61807;48.384;-4.386;2023-02-01T19:54:18;11.75;8.75;6.00
73546;PMS7003;61807;48.384;-4.386;2023-02-01T19:56:44;13.25;9.75;6.75
73546;PMS7003;61807;48.384;-4.386;2023-02-01T19:59:13;10.25;7.25;5.00
73546;PMS7003;61807;48.384;-4.386;2023-02-01T20:01:39;14.00;9.00;6.50
73546;PMS7003;61807;48.384;-4.386;2023-02-01T20:04:05;12.00;9.00;7.00
73546;PMS7003;61807;48.384;-4.386;2023-02-01T20:06:31;12.25;10.75;7.00
73546;PMS7003;61807;48.384;-4.386;2023-02-01T20:08:58;7.00;7.00;6.00
73546;PMS7003;61807;48.384;-4.386;2023-02-01T20:11:24;10.00;8.75;6.00
73546;PMS7003;61807;48.384;-4.386;2023-02-01T20:13:53;10.25;9.00;6.00
73546;PMS7003;61807;48.384;-4.386;2023-02-01T20:16:19;16.75;10.25;8.00
73546;PMS7003;61807;48.384;-4.386;2023-02-01T20:18:46;15.00;10.75;8.25
73546;PMS7003;61807;48.384;-4.386;2023-02-01T20:21:11;16.25;16.00;10.00
73546;PMS7003;61807;48.384;-4.386;2023-02-01T20:23:37;17.25;14.25;10.00
73546;PMS7003;61807;48.384;-4.386;2023-02-01T20:26:03;19.75;14.50;10.50
73546;PMS7003;61807;48.384;-4.386;2023-02-01T20:28:30;18.50;15.25;8.50
73546;PMS7003;61807;48.384;-4.386;2023-02-01T20:30:56;20.00;16.50;11.00
73546;PMS7003;61807;48.384;-4.386;2023-02-01T20:33:21;22.75;15.50;10.00
73546;PMS7003;61807;48.384;-4.386;2023-02-01T20:35:47;17.75;14.50;8.00
73546;PMS7003;61807;48.384;-4.386;2023-02-01T20:38:12;18.00;16.25;10.00
73546;PMS7003;61807;48.384;-4.386;2023-02-01T20:40:38;18.75;10.75;8.00
73546;PMS7003;61807;48.384;-4.386;2023-02-01T20:43:04;15.25;12.25;8.50
73546;PMS7003;61807;48.384;-4.386;2023-02-01T20:45:30;14.25;10.50;7.00
73546;PMS7003;61807;48.384;-4.386;2023-02-01T20:47:55;14.75;11.75;8.50
73546;PMS7003;61807;48.384;-4.386;2023-02-01T20:50:20;16.00;11.50;7.00
73546;PMS7003;61807;48.384;-4.386;2023-02-01T20:52:46;13.50;7.00;5.25
73546;PMS7003;61807;48.384;-4.386;2023-02-01T20:55:11;15.00;9.50;7.00
73546;PMS7003;61807;48.384;-4.386;2023-02-01T20:57:36;12.75;9.00;7.00
73546;PMS7003;61807;48.384;-4.386;2023-02-01T21:00:02;12.75;9.75;6.00
73546;PMS7003;61807;48.384;-4.386;2023-02-01T21:02:32;14.50;9.75;6.00
73546;PMS7003;61807;48.384;-4.386;2023-02-01T21:04:57;8.75;7.50;5.75
73546;PMS7003;61807;48.384;-4.386;2023-02-01T21:07:22;11.75;9.00;5.50
73546;PMS7003;61807;48.384;-4.386;2023-02-01T21:09:48;12.75;6.75;4.00
73546;PMS7003;61807;48.384;-4.386;2023-02-01T21:12:13;5.75;4.50;3.00
73546;PMS7003;61807;48.384;-4.386;2023-02-01T21:14:38;6.25;5.00;3.50
73546;PMS7003;61807;48.384;-4.386;2023-02-01T21:17:04;6.50;6.50;4.00
73546;PMS7003;61807;48.384;-4.386;2023-02-01T21:19:29;15.25;8.25;5.00
73546;PMS7003;61807;48.384;-4.386;2023-02-01T21:22:06;7.00;5.25;4.00
73546;PMS7003;61807;48.384;-4.386;2023-02-01T21:24:32;11.75;5.25;4.25
73546;PMS7003;61807;48.384;-4.386;2023-02-01T21:26:58;9.25;5.00;4.00
73546;PMS7003;61807;48.384;-4.386;2023-02-01T21:29:23;11.75;7.25;6.00
73546;PMS7003;61807;48.384;-4.386;2023-02-01T21:31:48;10.50;10.50;6.00
73546;PMS7003;61807;48.384;-4.386;2023-02-01T21:34:14;17.00;9.00;6.00
73546;PMS7003;61807;48.384;-4.386;2023-02-01T21:36:39;8.75;6.50;5.00
73546;PMS7003;61807;48.384;-4.386;2023-02-01T21:39:05;10.00;7.00;4.00
73546;PMS7003;61807;48.384;-4.386;2023-02-01T21:41:32;8.00;5.50;4.00
73546;PMS7003;61807;48.384;-4.386;2023-02-01T21:44:17;7.00;4.00;3.00
73546;PMS7003;61807;48.384;-4.386;2023-02-01T21:46:43;4.75;3.00;3.00
73546;PMS7003;61807;48.384;-4.386;2023-02-01T21:49:09;9.75;5.50;3.50
73546;PMS7003;61807;48.384;-4.386;2023-02-01T21:51:34;6.75;5.00;3.00
73546;PMS7003;61807;48.384;-4.386;2023-02-01T21:54:02;5.50;4.25;3.00
73546;PMS7003;61807;48.384;-4.386;2023-02-01T21:56:31;7.50;3.00;3.00
73546;PMS7003;61807;48.384;-4.386;2023-02-01T21:58:56;6.25;3.00;2.00
73546;PMS7003;61807;48.384;-4.386;2023-02-01T22:01:21;7.25;5.00;3.00
73546;PMS7003;61807;48.384;-4.386;2023-02-01T22:03:47;8.00;5.00;2.75
73546;PMS7003;61807;48.384;-4.386;2023-02-01T22:06:26;6.00;2.50;2.00
73546;PMS7003;61807;48.384;-4.386;2023-02-01T22:08:53;8.00;3.50;3.00
73546;PMS7003;61807;48.384;-4.386;2023-02-01T22:11:18;4.00;2.75;2.25
73546;PMS7003;61807;48.384;-4.386;2023-02-01T22:13:44;6.00;3.50;2.00
73546;PMS7003;61807;48.384;-4.386;2023-02-01T22:16:09;8.00;3.00;2.00
73546;PMS7003;61807;48.384;-4.386;2023-02-01T22:18:35;6.25;3.00;2.00
73546;PMS7003;61807;48.384;-4.386;2023-02-01T22:21:00;2.00;2.00;2.00
73546;PMS7003;61807;48.384;-4.386;2023-02-01T22:23:28;5.00;2.75;2.00
73546;PMS7003;61807;48.384;-4.386;2023-02-01T22:26:00;6.50;4.00;2.00
73546;PMS7003;61807;48.384;-4.386;2023-02-01T22:28:33;3.75;2.00;1.75
73546;PMS7003;61807;48.384;-4.386;2023-02-01T22:30:59;4.25;3.50;2.00
73546;PMS7003;61807;48.384;-4.386;2023-02-01T22:33:26;4.00;2.75;2.00
73546;PMS7003;61807;48.384;-4.386;2023-02-01T22:35:52;4.00;2.50;2.00
73546;PMS7003;61807;48.384;-4.386;2023-02-01T22:38:17;3.00;1.25;1.25
73546;PMS7003;61807;48.384;-4.386;2023-02-01T22:40:43;2.00;2.00;1.50
73546;PMS7003;61807;48.384;-4.386;2023-02-01T22:43:08;4.75;3.00;2.00
73546;PMS7003;61807;48.384;-4.386;2023-02-01T22:45:37;3.25;1.50;1.00
73546;PMS7003;61807;48.384;-4.386;2023-02-01T22:48:03;2.00;2.00;2.00
73546;PMS7003;61807;48.384;-4.386;2023-02-01T22:50:29;2.00;2.00;2.00
73546;PMS7003;61807;48.384;-4.386;2023-02-01T22:52:55;3.75;2.25;1.75